createdAt,value
2018-07-13T00:02:22.089Z,100693.14
2018-07-13T00:04:50.534Z,100689.56
2018-07-13T00:07:19.973Z,100694.02
2018-07-13T00:09:48.426Z,100696.55
2018-07-13T00:12:16.808Z,100694.47
2018-07-13T00:14:56.339Z,100688.45
2018-07-13T00:17:24.829Z,100695.70
2018-07-13T00:19:53.278Z,100695.83
2018-07-13T00:22:21.661Z,100696.54
2018-07-13T00:24:50.097Z,100702.52
2018-07-13T00:27:18.596Z,100703.81
2018-07-13T00:29:47.001Z,100706.64
2018-07-13T00:32:15.448Z,100702.95
2018-07-13T00:34:43.931Z,100706.64
2018-07-13T00:37:12.477Z,100702.30
2018-07-13T00:39:41.032Z,100707.34
2018-07-13T00:42:09.543Z,100712.19
2018-07-13T00:44:38.037Z,100716.58
2018-07-13T00:47:06.506Z,100715.88
2018-07-13T00:49:34.971Z,100713.25
2018-07-13T00:52:03.390Z,100715.18
2018-07-13T00:54:31.852Z,100719.84
2018-07-13T00:57:00.344Z,100719.84
2018-07-13T00:59:28.856Z,100725.35
2018-07-13T01:01:57.274Z,100720.41
2018-07-13T01:04:25.759Z,100722.09
2018-07-13T01:06:54.230Z,100719.02
2018-07-13T01:09:22.666Z,100723.69
2018-07-13T01:11:51.227Z,100722.52
2018-07-13T01:14:19.685Z,100724.87
2018-07-13T01:16:48.132Z,100730.24
2018-07-13T01:19:16.533Z,100727.61
2018-07-13T01:21:44.973Z,100729.16
2018-07-13T01:24:13.453Z,100727.80
2018-07-13T01:26:41.941Z,100727.07
2018-07-13T01:29:10.476Z,100718.34
2018-07-13T01:31:38.991Z,100730.19
2018-07-13T01:34:07.514Z,100721.84
2018-07-13T01:36:36.024Z,100728.36
2018-07-13T01:39:06.023Z,100730.24
2018-07-13T01:41:34.573Z,100729.66
2018-07-13T01:44:03.092Z,100729.15
2018-07-13T01:46:31.572Z,100727.45
2018-07-13T01:49:00.144Z,100724.29
2018-07-13T01:51:28.745Z,100721.33
2018-07-13T01:53:57.186Z,100723.50
2018-07-13T01:56:25.838Z,100708.30
2018-07-13T01:58:54.332Z,100716.71
2018-07-13T02:01:22.813Z,100712.55
2018-07-13T02:03:51.371Z,100718.92
2018-07-13T02:06:19.823Z,100721.37
2018-07-13T02:08:48.281Z,100722.17
2018-07-13T02:11:16.770Z,100724.53
2018-07-13T02:13:45.222Z,100720.71
2018-07-13T02:16:13.664Z,100721.66
2018-07-13T02:18:42.411Z,100726.78
2018-07-13T02:21:10.849Z,100723.77
2018-07-13T02:23:39.277Z,100723.15
2018-07-13T02:26:07.801Z,100719.14
2018-07-13T02:28:36.207Z,100718.23
2018-07-13T02:31:04.709Z,100722.75
2018-07-13T02:33:33.184Z,100729.16
2018-07-13T02:36:01.587Z,100726.73
2018-07-13T02:38:29.974Z,100731.03
2018-07-13T02:40:58.701Z,100736.83
2018-07-13T02:43:27.169Z,100738.72
2018-07-13T02:45:55.600Z,100739.48
2018-07-13T02:48:24.142Z,100737.73
2018-07-13T02:50:52.568Z,100738.87
2018-07-13T02:53:21.028Z,100741.45
2018-07-13T02:55:49.465Z,100752.72
2018-07-13T02:58:18.014Z,100748.36
2018-07-13T03:00:46.475Z,100746.84
2018-07-13T03:03:14.906Z,100742.75
2018-07-13T03:05:43.366Z,100750.64
2018-07-13T03:08:11.789Z,100754.16
2018-07-13T03:10:40.293Z,100761.34
2018-07-13T03:13:08.714Z,100752.50
2018-07-13T03:15:37.230Z,100754.96
2018-07-13T03:18:05.848Z,100762.97
2018-07-13T03:20:34.329Z,100762.16
2018-07-13T03:23:02.899Z,100762.58
2018-07-13T03:25:31.366Z,100766.83
2018-07-13T03:28:00.259Z,100770.47
2018-07-13T03:30:28.721Z,100772.63
2018-07-13T03:32:57.163Z,100772.79
2018-07-13T03:35:25.561Z,100775.89
2018-07-13T03:37:53.981Z,100782.41
2018-07-13T03:40:22.547Z,100779.58
2018-07-13T03:42:50.990Z,100783.92
2018-07-13T03:45:19.462Z,100786.31
2018-07-13T03:47:47.963Z,100781.32
2018-07-13T03:50:16.499Z,100790.95
2018-07-13T03:52:44.953Z,100795.23
2018-07-13T03:55:13.481Z,100799.30
2018-07-13T03:57:41.943Z,100798.28
2018-07-13T04:00:10.412Z,100789.36
2018-07-13T04:02:38.793Z,100793.64
2018-07-13T04:05:07.263Z,100792.63
2018-07-13T04:07:35.734Z,100789.56
2018-07-13T04:10:04.267Z,100792.89
2018-07-13T04:12:32.836Z,100792.55
2018-07-13T04:15:01.383Z,100798.69
2018-07-13T04:17:30.080Z,100798.88
2018-07-13T04:19:58.585Z,100803.84
2018-07-13T04:22:27.086Z,100807.60
2018-07-13T04:24:55.695Z,100806.31
2018-07-13T04:27:24.332Z,100808.51
2018-07-13T04:29:52.971Z,100812.69
2018-07-13T04:32:21.500Z,100812.27
2018-07-13T04:34:49.917Z,100813.44
2018-07-13T04:37:19.424Z,100807.30
2018-07-13T04:39:47.865Z,100813.29
2018-07-13T04:42:16.327Z,100809.16
2018-07-13T04:44:44.806Z,100808.59
2018-07-13T04:47:13.333Z,100811.96
2018-07-13T04:49:41.907Z,100807.60
2018-07-13T04:52:10.505Z,100809.61
2018-07-13T04:54:39.106Z,100810.94
2018-07-13T04:57:07.762Z,100814.17
2018-07-13T04:59:36.343Z,100812.23
2018-07-13T05:02:04.899Z,100821.38
2018-07-13T05:04:33.478Z,100825.45
2018-07-13T05:07:02.074Z,100828.30
2018-07-13T05:09:30.787Z,100828.64
2018-07-13T05:11:59.322Z,100830.31
2018-07-13T05:14:27.718Z,100832.55
2018-07-13T05:16:56.219Z,100835.77
2018-07-13T05:19:24.653Z,100834.01
2018-07-13T05:21:53.796Z,100840.50
2018-07-13T05:24:23.662Z,100838.19
2018-07-13T05:26:52.493Z,100830.45
2018-07-13T05:29:22.740Z,100834.31
2018-07-13T05:31:53.307Z,100839.48
2018-07-13T05:34:21.825Z,100838.27
2018-07-13T05:36:50.305Z,100842.09
2018-07-13T05:39:18.767Z,100844.95
2018-07-13T05:41:47.225Z,100843.83
2018-07-13T05:44:15.763Z,100843.69
2018-07-13T05:46:44.220Z,100848.32
2018-07-13T05:49:12.636Z,100853.68
2018-07-13T05:51:41.100Z,100860.55
2018-07-13T05:54:09.867Z,100852.70
2018-07-13T05:56:38.398Z,100851.52
2018-07-13T05:59:06.857Z,100855.38
2018-07-13T06:01:35.315Z,100857.75
2018-07-13T06:04:03.961Z,100854.44
2018-07-13T06:06:32.471Z,100851.86
2018-07-13T06:09:01.039Z,100856.03
2018-07-13T06:11:29.769Z,100852.05
2018-07-13T06:13:58.223Z,100856.52
2018-07-13T06:16:26.706Z,100850.41
2018-07-13T06:18:55.185Z,100854.63
2018-07-13T06:21:23.625Z,100857.51
2018-07-13T06:23:52.052Z,100862.78
2018-07-13T06:26:20.463Z,100854.20
2018-07-13T06:28:49.406Z,100866.20
2018-07-13T06:31:17.878Z,100874.20
2018-07-13T06:33:46.310Z,100878.08
2018-07-13T06:36:14.777Z,100873.64
2018-07-13T06:38:43.318Z,100884.92
2018-07-13T06:41:11.866Z,100878.66
2018-07-13T06:43:40.578Z,100874.59
2018-07-13T06:46:09.020Z,100872.31
2018-07-13T06:48:37.451Z,100873.48
2018-07-13T06:51:05.909Z,100881.00
2018-07-13T06:53:34.366Z,100877.66
2018-07-13T06:56:02.838Z,100877.53
2018-07-13T06:58:42.555Z,100874.58
2018-07-13T07:01:11.010Z,100873.63
2018-07-13T07:04:43.231Z,100874.22
2018-07-13T07:07:16.318Z,100874.77
2018-07-13T07:09:50.906Z,100873.81
2018-07-13T07:12:26.921Z,100879.14
2018-07-13T07:14:55.481Z,100869.88
2018-07-13T07:17:24.017Z,100881.69
2018-07-13T07:19:52.439Z,100879.03
2018-07-13T07:22:20.878Z,100879.07
2018-07-13T07:24:49.315Z,100871.41
2018-07-13T07:27:17.737Z,100883.33
2018-07-13T07:29:46.168Z,100888.73
2018-07-13T07:32:14.650Z,100884.85
2018-07-13T07:34:43.039Z,100888.22
2018-07-13T07:37:11.523Z,100885.63
2018-07-13T07:39:39.929Z,100889.20
2018-07-13T07:42:08.368Z,100892.98
2018-07-13T07:44:36.908Z,100892.69
2018-07-13T07:47:05.324Z,100893.52
2018-07-13T07:49:33.883Z,100895.59
2018-07-13T07:52:02.415Z,100896.12
2018-07-13T07:54:30.796Z,100894.20
2018-07-13T07:56:59.204Z,100893.09
2018-07-13T07:59:27.630Z,100896.91
2018-07-13T08:01:56.061Z,100900.25
2018-07-13T08:04:24.510Z,100893.73
2018-07-13T08:06:53.636Z,100902.53
2018-07-13T08:09:21.784Z,100904.02
2018-07-13T08:11:50.196Z,100906.63
2018-07-13T08:14:18.648Z,100900.84
2018-07-13T08:16:47.102Z,100900.28
2018-07-13T08:19:15.507Z,100901.09
2018-07-13T08:21:44.928Z,100897.06
2018-07-13T08:24:17.957Z,100896.50
2018-07-13T08:26:46.539Z,100900.74
2018-07-13T08:29:16.423Z,100905.19
2018-07-13T08:31:44.833Z,100903.25
2018-07-13T08:34:13.346Z,100903.27
2018-07-13T08:36:41.897Z,100900.34
2018-07-13T08:39:10.419Z,100898.30
2018-07-13T08:41:38.906Z,100904.09
2018-07-13T08:44:07.454Z,100908.48
2018-07-13T08:46:35.887Z,100914.13
2018-07-13T08:49:04.338Z,100908.88
2018-07-13T08:51:32.795Z,100912.94
2018-07-13T08:54:01.292Z,100920.33
2018-07-13T08:56:29.757Z,100916.29
2018-07-13T08:58:58.321Z,100922.66
2018-07-13T09:01:26.756Z,100915.60
2018-07-13T09:03:56.000Z,100917.22
2018-07-13T09:06:24.566Z,100928.23
2018-07-13T09:08:53.074Z,100926.62
2018-07-13T09:11:21.703Z,100922.30
2018-07-13T09:13:50.669Z,100930.80
2018-07-13T09:16:19.191Z,100930.53
2018-07-13T09:18:47.648Z,100933.55
2018-07-13T09:21:16.109Z,100929.75
2018-07-13T09:23:44.576Z,100929.89
2018-07-13T09:26:13.061Z,100933.77
2018-07-13T09:28:41.705Z,100924.66
2018-07-13T09:31:10.427Z,100931.97
2018-07-13T09:33:38.999Z,100930.27
2018-07-13T09:36:07.661Z,100929.75
2018-07-13T09:38:36.149Z,100927.41
2018-07-13T09:41:04.573Z,100933.53
2018-07-13T09:43:33.115Z,100931.70
2018-07-13T09:46:01.581Z,100934.58
2018-07-13T09:48:30.140Z,100937.95
2018-07-13T09:50:58.701Z,100933.18
2018-07-13T09:53:27.457Z,100936.79
2018-07-13T09:55:55.864Z,100942.30
2018-07-13T09:58:34.561Z,100936.42
2018-07-13T10:01:08.245Z,100944.39
2018-07-13T10:03:36.758Z,100942.88
2018-07-13T10:06:05.274Z,100944.70
2018-07-13T10:08:34.331Z,100950.17
2018-07-13T10:11:02.860Z,100945.61
2018-07-13T10:13:31.522Z,100945.56
2018-07-13T10:16:00.024Z,100948.98
2018-07-13T10:18:28.587Z,100940.01
2018-07-13T10:20:59.554Z,100958.05
2018-07-13T10:23:28.669Z,100952.92
2018-07-13T10:26:01.504Z,100950.94
2018-07-13T10:28:30.182Z,100948.41
2018-07-13T10:30:58.780Z,100951.15
2018-07-13T10:33:27.436Z,100948.09
2018-07-13T10:35:56.868Z,100956.09
2018-07-13T10:38:25.288Z,100943.03
2018-07-13T10:40:53.776Z,100948.83
2018-07-13T10:43:22.166Z,100943.70
2018-07-13T10:45:50.670Z,100951.83
2018-07-13T10:48:19.041Z,100952.72
2018-07-13T10:50:47.765Z,100953.34
2018-07-13T10:53:16.163Z,100951.59
2018-07-13T10:55:44.641Z,100956.41
2018-07-13T10:58:13.104Z,100958.63
2018-07-13T11:00:41.502Z,100956.40
2018-07-13T11:03:10.104Z,100953.17
2018-07-13T11:05:38.509Z,100947.06
2018-07-13T11:08:06.954Z,100948.59
2018-07-13T11:10:35.421Z,100944.00
2018-07-13T11:13:03.911Z,100939.64
2018-07-13T11:15:32.350Z,100931.77
2018-07-13T11:18:00.892Z,100936.56
2018-07-13T11:20:29.354Z,100933.91
2018-07-13T11:22:57.868Z,100929.03
2018-07-13T11:25:26.340Z,100940.64
2018-07-13T11:27:54.734Z,100932.48
2018-07-13T11:30:23.168Z,100936.54
2018-07-13T11:32:51.593Z,100944.78
2018-07-13T11:35:20.124Z,100940.61
2018-07-13T11:37:48.534Z,100944.98
2018-07-13T11:40:22.037Z,100946.19
2018-07-13T11:42:50.761Z,100947.41
2018-07-13T11:45:19.302Z,100941.30
2018-07-13T11:47:47.732Z,100944.02
2018-07-13T11:50:16.582Z,100949.09
2018-07-13T11:52:45.060Z,100945.13
2018-07-13T11:55:13.621Z,100944.72
2018-07-13T11:57:42.228Z,100945.55
2018-07-13T12:00:10.903Z,100945.72
2018-07-13T12:02:39.453Z,100942.25
2018-07-13T12:05:07.915Z,100949.88
2018-07-13T12:07:36.471Z,100945.87
2018-07-13T12:10:04.875Z,100947.56
2018-07-13T12:12:33.479Z,100943.12
2018-07-13T12:15:02.007Z,100945.98
2018-07-13T12:17:30.614Z,100945.32
2018-07-13T12:19:59.282Z,100939.17
2018-07-13T12:22:27.674Z,100936.45
2018-07-13T12:24:56.142Z,100936.47
2018-07-13T12:27:24.593Z,100940.23
2018-07-13T12:29:53.032Z,100929.60
2018-07-13T12:32:21.496Z,100939.77
2018-07-13T12:34:49.895Z,100932.73
2018-07-13T12:37:18.355Z,100930.07
2018-07-13T12:39:46.911Z,100929.84
2018-07-13T12:42:15.279Z,100930.97
2018-07-13T12:44:43.718Z,100932.80
2018-07-13T12:47:12.129Z,100934.27
2018-07-13T12:49:40.534Z,100927.70
2018-07-13T12:52:09.003Z,100931.06
2018-07-13T12:54:37.571Z,100928.98
2018-07-13T12:57:06.115Z,100929.30
2018-07-13T12:59:34.679Z,100922.81
2018-07-13T13:02:03.076Z,100922.88
2018-07-13T13:04:31.587Z,100923.97
2018-07-13T13:07:00.114Z,100930.12
2018-07-13T13:09:28.668Z,100926.92
2018-07-13T13:11:57.167Z,100925.34
2018-07-13T13:14:25.580Z,100926.64
2018-07-13T13:16:54.216Z,100916.13
2018-07-13T13:19:22.746Z,100918.80
2018-07-13T13:21:51.208Z,100913.59
2018-07-13T13:24:19.862Z,100914.13
2018-07-13T13:26:48.342Z,100913.41
2018-07-13T13:29:17.018Z,100909.09
2018-07-13T13:31:45.471Z,100910.72
2018-07-13T13:34:13.949Z,100903.28
2018-07-13T13:36:42.430Z,100899.30
2018-07-13T13:39:10.913Z,100909.15
2018-07-13T13:41:39.368Z,100900.90
2018-07-13T13:44:08.075Z,100901.61
2018-07-13T13:46:36.737Z,100902.39
2018-07-13T13:49:05.338Z,100895.06
2018-07-13T13:51:33.785Z,100893.80
2018-07-13T13:54:02.243Z,100894.94
2018-07-13T13:56:33.970Z,100899.75
2018-07-13T13:59:02.615Z,100893.63
2018-07-13T14:01:31.006Z,100884.55
2018-07-13T14:03:59.845Z,100891.31
2018-07-13T14:06:28.441Z,100896.34
2018-07-13T14:08:56.861Z,100899.91
2018-07-13T14:11:25.284Z,100897.92
2018-07-13T14:13:53.748Z,100901.50
2018-07-13T14:16:22.108Z,100895.41
2018-07-13T14:18:50.581Z,100896.92
2018-07-13T14:21:19.055Z,100892.47
2018-07-13T14:23:47.527Z,100894.56
2018-07-13T14:26:15.906Z,100891.90
2018-07-13T14:28:44.468Z,100889.45
2018-07-13T14:31:12.974Z,100888.10
2018-07-13T14:33:41.468Z,100889.11
2018-07-13T14:36:09.933Z,100883.96
2018-07-13T14:38:38.409Z,100882.00
2018-07-13T14:41:06.929Z,100882.27
2018-07-13T14:43:35.303Z,100875.05
2018-07-13T14:46:03.962Z,100875.94
2018-07-13T14:48:32.356Z,100873.36
2018-07-13T14:51:00.823Z,100874.69
2018-07-13T14:53:29.317Z,100874.92
2018-07-13T14:55:57.774Z,100865.06
2018-07-13T14:58:26.200Z,100862.88
2018-07-13T15:00:54.653Z,100861.86
2018-07-13T15:03:23.081Z,100862.12
2018-07-13T15:05:51.609Z,100859.73
2018-07-13T15:08:19.906Z,100863.97
2018-07-13T15:10:48.381Z,100851.22
2018-07-13T15:13:16.864Z,100852.04
2018-07-13T15:15:45.474Z,100857.94
2018-07-13T15:18:13.870Z,100856.24
2018-07-13T15:20:42.300Z,100842.16
2018-07-13T15:23:10.786Z,100844.36
2018-07-13T15:25:39.380Z,100846.34
2018-07-13T15:28:07.949Z,100846.34
2018-07-13T15:30:36.356Z,100845.59
2018-07-13T15:33:04.785Z,100843.54
2018-07-13T15:35:33.284Z,100837.42
2018-07-13T15:38:01.782Z,100840.59
2018-07-13T15:40:30.296Z,100838.64
2018-07-13T15:42:58.903Z,100834.62
2018-07-13T15:45:27.524Z,100833.98
2018-07-13T15:47:55.965Z,100835.44
2018-07-13T15:50:31.764Z,100826.22
2018-07-13T15:53:00.205Z,100827.44
2018-07-13T15:55:32.953Z,100825.30
2018-07-13T15:58:02.035Z,100828.17
2018-07-13T16:00:31.084Z,100823.14
2018-07-13T16:02:59.646Z,100819.34
2018-07-13T16:05:28.166Z,100822.97
2018-07-13T16:07:56.636Z,100820.52
2018-07-13T16:10:25.987Z,100811.95
2018-07-13T16:12:54.377Z,100814.75
2018-07-13T16:15:22.848Z,100815.69
2018-07-13T16:17:51.432Z,100813.94
2018-07-13T16:20:20.158Z,100819.78
2018-07-13T16:22:48.669Z,100814.19
2018-07-13T16:25:17.166Z,100821.75
2018-07-13T16:27:45.973Z,100816.53
2018-07-13T16:30:14.558Z,100805.36
2018-07-13T16:32:43.043Z,100809.91
2018-07-13T16:35:11.457Z,100810.85
2018-07-13T16:37:40.109Z,100807.30
2018-07-13T16:40:08.771Z,100809.26
2018-07-13T16:42:37.252Z,100807.85
2018-07-13T16:45:05.865Z,100805.80
2018-07-13T16:47:34.281Z,100804.20
2018-07-13T16:50:02.864Z,100800.02
2018-07-13T16:52:31.462Z,100800.50
2018-07-13T16:54:59.989Z,100797.52
2018-07-13T16:57:29.197Z,100794.91
2018-07-13T16:59:57.682Z,100799.01
2018-07-13T17:02:26.124Z,100800.59
2018-07-13T17:04:54.577Z,100792.31
2018-07-13T17:07:23.165Z,100792.41
2018-07-13T17:09:51.602Z,100799.28
2018-07-13T17:12:20.084Z,100795.20
2018-07-13T17:14:48.559Z,100796.67
2018-07-13T17:17:17.446Z,100793.89
2018-07-13T17:19:45.959Z,100793.04
2018-07-13T17:22:14.533Z,100794.25
2018-07-13T17:24:42.996Z,100797.14
2018-07-13T17:27:11.612Z,100791.26
2018-07-13T17:29:40.288Z,100787.26
2018-07-13T17:32:08.789Z,100791.65
2018-07-13T17:34:37.342Z,100790.61
2018-07-13T17:39:33.192Z,100787.37
2018-07-13T17:42:01.588Z,100781.88
2018-07-13T17:44:30.028Z,100787.72
2018-07-13T17:46:58.544Z,100788.02
2018-07-13T17:49:27.090Z,100783.35
2018-07-13T17:51:55.634Z,100781.22
2018-07-13T17:54:24.084Z,100780.83
2018-07-13T17:56:52.660Z,100780.09
2018-07-13T17:59:21.121Z,100786.81
2018-07-13T18:01:49.492Z,100782.63
2018-07-13T18:04:17.923Z,100784.02
2018-07-13T18:06:46.406Z,100786.44
2018-07-13T18:09:14.884Z,100789.60
2018-07-13T18:11:43.276Z,100788.50
2018-07-13T18:14:11.752Z,100793.33
2018-07-13T18:16:40.333Z,100790.17
2018-07-13T18:19:09.189Z,100794.09
2018-07-13T18:21:38.649Z,100796.87
2018-07-13T18:24:07.343Z,100792.79
2018-07-13T18:26:35.734Z,100795.09
2018-07-13T18:29:04.175Z,100798.50
2018-07-13T18:31:32.596Z,100796.92
2018-07-13T18:34:01.264Z,100800.75
2018-07-13T18:36:29.743Z,100805.77
2018-07-13T18:38:58.556Z,100811.70
2018-07-13T18:41:27.130Z,100813.32
2018-07-13T18:43:55.601Z,100813.59
2018-07-13T18:46:24.029Z,100815.81
2018-07-13T18:48:52.688Z,100814.59
2018-07-13T18:51:21.108Z,100818.02
2018-07-13T18:53:49.639Z,100824.14
2018-07-13T18:56:18.118Z,100822.41
2018-07-13T18:58:46.630Z,100821.34
2018-07-13T19:01:14.992Z,100820.30
2018-07-13T19:03:43.497Z,100816.95
2018-07-13T19:06:11.893Z,100815.45
2018-07-13T19:08:41.192Z,100827.16
2018-07-13T19:11:09.737Z,100825.94
2018-07-13T19:13:38.190Z,100826.86
2018-07-13T19:16:06.686Z,100823.86
2018-07-13T19:18:35.065Z,100827.20
2018-07-13T19:21:03.504Z,100832.75
2018-07-13T19:23:31.899Z,100839.42
2018-07-13T19:26:00.245Z,100835.79
2018-07-13T19:28:28.636Z,100838.39
2018-07-13T19:30:57.356Z,100839.48
2018-07-13T19:33:25.709Z,100843.36
2018-07-13T19:35:54.160Z,100846.52
2018-07-13T19:38:22.657Z,100851.14
2018-07-13T19:40:51.039Z,100849.30
2018-07-13T19:43:19.429Z,100851.80
2018-07-13T19:45:48.792Z,100857.47
2018-07-13T19:50:51.909Z,100858.14
2018-07-13T19:53:20.339Z,100863.05
2018-07-13T19:55:48.718Z,100864.97
2018-07-13T19:58:17.172Z,100866.22
2018-07-13T20:00:45.729Z,100869.09
2018-07-13T20:03:14.387Z,100873.78
2018-07-13T20:05:42.897Z,100874.87
2018-07-13T20:08:11.261Z,100877.07
2018-07-13T20:10:39.710Z,100870.28
2018-07-13T20:13:08.168Z,100874.31
2018-07-13T20:15:36.987Z,100875.78
2018-07-13T20:18:05.428Z,100875.25
2018-07-13T20:20:34.068Z,100874.09
2018-07-13T20:23:02.588Z,100881.52
2018-07-13T20:25:31.084Z,100883.88
2018-07-13T20:27:59.537Z,100882.70
2018-07-13T20:30:27.992Z,100887.00
2018-07-13T20:32:56.486Z,100882.92
2018-07-13T20:35:24.889Z,100890.17
2018-07-13T20:37:53.452Z,100887.11
2018-07-13T20:40:21.874Z,100887.93
2018-07-13T20:42:50.421Z,100894.25
2018-07-13T20:45:18.810Z,100899.72
2018-07-13T20:47:47.318Z,100895.83
2018-07-13T20:50:15.878Z,100903.22
2018-07-13T20:52:44.418Z,100903.94
2018-07-13T20:55:12.880Z,100902.17
2018-07-13T20:57:41.432Z,100901.21
2018-07-13T21:00:09.953Z,100902.81
2018-07-13T21:02:38.382Z,100909.73
2018-07-13T21:05:06.907Z,100895.58
2018-07-13T21:07:35.353Z,100900.09
2018-07-13T21:10:03.959Z,100902.49
2018-07-13T21:12:32.339Z,100902.64
2018-07-13T21:15:00.888Z,100911.00
2018-07-13T21:17:29.343Z,100908.56
2018-07-13T21:19:57.783Z,100909.20
2018-07-13T21:22:26.174Z,100909.03
2018-07-13T21:24:55.455Z,100914.13
2018-07-13T21:27:23.948Z,100916.73
2018-07-13T21:29:52.575Z,100921.66
2018-07-13T21:32:21.005Z,100921.59
2018-07-13T21:34:49.705Z,100921.39
2018-07-13T21:37:18.101Z,100922.28
2018-07-13T21:39:46.586Z,100925.22
2018-07-13T21:42:15.041Z,100922.73
2018-07-13T21:44:43.437Z,100921.95
2018-07-13T21:49:54.744Z,100921.56
2018-07-13T21:52:23.166Z,100923.18
2018-07-13T21:54:51.542Z,100919.16
2018-07-13T21:57:19.945Z,100917.66
2018-07-13T21:59:48.364Z,100923.03
2018-07-13T22:02:16.809Z,100921.55
2018-07-13T22:04:45.218Z,100917.59
2018-07-13T22:07:13.616Z,100917.88
2018-07-13T22:09:42.074Z,100905.05
2018-07-13T22:12:10.483Z,100909.07
2018-07-13T22:14:39.100Z,100916.56
2018-07-13T22:17:07.489Z,100917.86
2018-07-13T22:19:35.944Z,100917.17
2018-07-13T22:22:04.795Z,100923.64
2018-07-13T22:24:33.578Z,100931.82
2018-07-13T22:27:02.020Z,100932.42
2018-07-13T22:29:30.430Z,100929.69
2018-07-13T22:31:59.049Z,100935.24
2018-07-13T22:34:27.517Z,100937.50
2018-07-13T22:36:55.954Z,100933.92
2018-07-13T22:39:24.803Z,100938.41
2018-07-13T22:41:53.230Z,100939.66
2018-07-13T22:44:22.362Z,100949.34
2018-07-13T22:46:50.877Z,100948.09
2018-07-13T22:49:19.321Z,100949.96
2018-07-13T22:51:47.787Z,100950.00
2018-07-13T22:54:16.232Z,100948.09
2018-07-13T22:56:44.945Z,100948.73
2018-07-13T22:59:13.380Z,100945.06
2018-07-13T23:01:41.912Z,100949.45
2018-07-13T23:04:10.318Z,100947.95
2018-07-13T23:06:39.128Z,100948.95
2018-07-13T23:09:07.971Z,100946.81
2018-07-13T23:11:36.445Z,100952.73
2018-07-13T23:14:04.917Z,100961.53
2018-07-13T23:16:33.377Z,100956.61
2018-07-13T23:19:01.800Z,100961.40
2018-07-13T23:21:30.185Z,100959.33
2018-07-13T23:23:58.796Z,100963.55
2018-07-13T23:26:27.285Z,100960.20
2018-07-13T23:28:55.765Z,100963.41
2018-07-13T23:31:24.182Z,100960.41
2018-07-13T23:33:52.574Z,100962.15
2018-07-13T23:36:21.031Z,100964.50
2018-07-13T23:38:49.458Z,100961.05
2018-07-13T23:41:17.825Z,100957.17
2018-07-13T23:43:46.209Z,100964.70
2018-07-13T23:46:14.620Z,100966.18
2018-07-13T23:48:43.024Z,100960.26
2018-07-13T23:51:11.401Z,100959.00
2018-07-13T23:53:39.953Z,100962.98
2018-07-13T23:56:08.341Z,100962.72
2018-07-13T23:58:36.940Z,100964.61
